sensor_id;sensor_type;location;lat;lon;timestamp;temperature;humidity
4520;DHT22;2272;49.226;8.108;2022-07-30T00:00:44;19.90;89.30
4520;DHT22;2272;49.226;8.108;2022-07-30T00:03:11;19.80;89.30
4520;DHT22;2272;49.226;8.108;2022-07-30T00:05:37;19.70;89.30
4520;DHT22;2272;49.226;8.108;2022-07-30T00:08:04;19.60;89.90
4520;DHT22;2272;49.226;8.108;2022-07-30T00:10:32;19.60;90.00
4520;DHT22;2272;49.226;8.108;2022-07-30T00:12:59;19.50;90.10
4520;DHT22;2272;49.226;8.108;2022-07-30T00:15:25;19.40;90.20
4520;DHT22;2272;49.226;8.108;2022-07-30T00:17:52;19.40;90.50
4520;DHT22;2272;49.226;8.108;2022-07-30T00:20:19;19.30;90.60
4520;DHT22;2272;49.226;8.108;2022-07-30T00:22:46;19.20;90.70
4520;DHT22;2272;49.226;8.108;2022-07-30T00:25:12;19.10;90.90
4520;DHT22;2272;49.226;8.108;2022-07-30T00:27:40;19.10;91.20
4520;DHT22;2272;49.226;8.108;2022-07-30T00:30:09;19.10;91.10
4520;DHT22;2272;49.226;8.108;2022-07-30T00:32:36;19.10;91.20
4520;DHT22;2272;49.226;8.108;2022-07-30T00:35:03;19.10;91.30
4520;DHT22;2272;49.226;8.108;2022-07-30T00:37:30;19.10;91.60
4520;DHT22;2272;49.226;8.108;2022-07-30T00:39:57;19.10;91.70
4520;DHT22;2272;49.226;8.108;2022-07-30T00:42:36;19.10;91.70
4520;DHT22;2272;49.226;8.108;2022-07-30T00:45:05;19.20;91.80
4520;DHT22;2272;49.226;8.108;2022-07-30T00:47:32;19.20;91.70
4520;DHT22;2272;49.226;8.108;2022-07-30T00:49:59;19.20;91.70
4520;DHT22;2272;49.226;8.108;2022-07-30T00:52:29;19.10;91.70
4520;DHT22;2272;49.226;8.108;2022-07-30T00:54:55;19.00;91.80
4520;DHT22;2272;49.226;8.108;2022-07-30T00:57:22;18.90;91.80
4520;DHT22;2272;49.226;8.108;2022-07-30T00:59:49;18.80;92.00
4520;DHT22;2272;49.226;8.108;2022-07-30T01:02:17;18.70;92.20
4520;DHT22;2272;49.226;8.108;2022-07-30T01:04:43;18.70;92.20
4520;DHT22;2272;49.226;8.108;2022-07-30T01:07:10;18.60;92.20
4520;DHT22;2272;49.226;8.108;2022-07-30T01:09:37;18.70;92.30
4520;DHT22;2272;49.226;8.108;2022-07-30T01:12:04;18.60;92.40
4520;DHT22;2272;49.226;8.108;2022-07-30T01:14:32;18.70;92.50
4520;DHT22;2272;49.226;8.108;2022-07-30T01:16:59;18.70;92.50
4520;DHT22;2272;49.226;8.108;2022-07-30T01:19:33;18.70;92.50
4520;DHT22;2272;49.226;8.108;2022-07-30T01:22:23;18.70;92.50
4520;DHT22;2272;49.226;8.108;2022-07-30T01:24:57;18.70;92.40
4520;DHT22;2272;49.226;8.108;2022-07-30T01:27:30;18.60;92.50
4520;DHT22;2272;49.226;8.108;2022-07-30T01:29:58;18.50;92.60
4520;DHT22;2272;49.226;8.108;2022-07-30T01:32:27;18.40;92.70
4520;DHT22;2272;49.226;8.108;2022-07-30T01:34:56;18.30;92.90
4520;DHT22;2272;49.226;8.108;2022-07-30T01:37:25;18.20;93.20
4520;DHT22;2272;49.226;8.108;2022-07-30T01:39:53;18.10;93.30
4520;DHT22;2272;49.226;8.108;2022-07-30T01:42:21;18.00;93.50
4520;DHT22;2272;49.226;8.108;2022-07-30T01:44:50;17.90;93.70
4520;DHT22;2272;49.226;8.108;2022-07-30T01:47:19;17.80;94.00
4520;DHT22;2272;49.226;8.108;2022-07-30T01:49:48;17.80;94.20
4520;DHT22;2272;49.226;8.108;2022-07-30T01:52:17;17.70;94.30
4520;DHT22;2272;49.226;8.108;2022-07-30T01:54:45;17.60;94.50
4520;DHT22;2272;49.226;8.108;2022-07-30T01:57:15;17.50;94.60
4520;DHT22;2272;49.226;8.108;2022-07-30T01:59:48;17.40;95.00
4520;DHT22;2272;49.226;8.108;2022-07-30T02:02:16;17.30;95.10
4520;DHT22;2272;49.226;8.108;2022-07-30T02:04:43;17.20;95.20
4520;DHT22;2272;49.226;8.108;2022-07-30T02:07:15;17.20;95.50
4520;DHT22;2272;49.226;8.108;2022-07-30T02:09:54;17.20;95.60
4520;DHT22;2272;49.226;8.108;2022-07-30T02:12:24;17.30;95.60
4520;DHT22;2272;49.226;8.108;2022-07-30T02:15:01;17.20;95.60
4520;DHT22;2272;49.226;8.108;2022-07-30T02:17:36;17.10;95.90
4520;DHT22;2272;49.226;8.108;2022-07-30T02:20:06;17.10;96.20
4520;DHT22;2272;49.226;8.108;2022-07-30T02:22:36;17.10;96.30
4520;DHT22;2272;49.226;8.108;2022-07-30T02:25:06;17.00;96.30
4520;DHT22;2272;49.226;8.108;2022-07-30T02:27:37;17.00;96.50
4520;DHT22;2272;49.226;8.108;2022-07-30T02:30:06;16.90;96.50
4520;DHT22;2272;49.226;8.108;2022-07-30T02:32:41;16.90;96.80
4520;DHT22;2272;49.226;8.108;2022-07-30T02:35:12;16.80;97.00
4520;DHT22;2272;49.226;8.108;2022-07-30T02:37:41;16.70;97.10
4520;DHT22;2272;49.226;8.108;2022-07-30T02:40:11;16.70;97.30
4520;DHT22;2272;49.226;8.108;2022-07-30T02:42:40;16.70;97.30
4520;DHT22;2272;49.226;8.108;2022-07-30T02:45:09;16.80;97.40
4520;DHT22;2272;49.226;8.108;2022-07-30T02:47:40;16.90;97.30
4520;DHT22;2272;49.226;8.108;2022-07-30T02:50:08;17.00;97.30
4520;DHT22;2272;49.226;8.108;2022-07-30T02:52:37;16.90;97.40
4520;DHT22;2272;49.226;8.108;2022-07-30T02:55:07;16.90;97.60
4520;DHT22;2272;49.226;8.108;2022-07-30T02:57:35;16.80;97.70
4520;DHT22;2272;49.226;8.108;2022-07-30T03:00:04;16.80;97.80
4520;DHT22;2272;49.226;8.108;2022-07-30T03:02:32;16.80;97.90
4520;DHT22;2272;49.226;8.108;2022-07-30T03:05:02;16.70;98.00
4520;DHT22;2272;49.226;8.108;2022-07-30T03:07:30;16.70;98.20
4520;DHT22;2272;49.226;8.108;2022-07-30T03:09:58;16.60;98.40
4520;DHT22;2272;49.226;8.108;2022-07-30T03:12:28;16.50;98.50
4520;DHT22;2272;49.226;8.108;2022-07-30T03:14:55;16.50;98.70
4520;DHT22;2272;49.226;8.108;2022-07-30T03:17:25;16.50;99.00
4520;DHT22;2272;49.226;8.108;2022-07-30T03:19:52;16.50;99.20
4520;DHT22;2272;49.226;8.108;2022-07-30T03:22:24;16.40;99.30
4520;DHT22;2272;49.226;8.108;2022-07-30T03:24:52;16.50;99.50
4520;DHT22;2272;49.226;8.108;2022-07-30T03:27:21;16.50;99.70
4520;DHT22;2272;49.226;8.108;2022-07-30T03:29:48;16.40;99.80
4520;DHT22;2272;49.226;8.108;2022-07-30T03:32:17;16.40;99.90
4520;DHT22;2272;49.226;8.108;2022-07-30T03:34:45;16.40;99.90
4520;DHT22;2272;49.226;8.108;2022-07-30T03:37:12;16.50;99.90
4520;DHT22;2272;49.226;8.108;2022-07-30T03:39:41;16.50;99.90
4520;DHT22;2272;49.226;8.108;2022-07-30T03:42:08;16.50;99.90
4520;DHT22;2272;49.226;8.108;2022-07-30T03:44:35;16.40;99.90
4520;DHT22;2272;49.226;8.108;2022-07-30T03:47:04;16.40;99.90
4520;DHT22;2272;49.226;8.108;2022-07-30T03:49:32;16.40;99.90
4520;DHT22;2272;49.226;8.108;2022-07-30T03:52:00;16.40;99.90
4520;DHT22;2272;49.226;8.108;2022-07-30T03:54:29;16.40;99.90
4520;DHT22;2272;49.226;8.108;2022-07-30T03:56:59;16.40;99.90
4520;DHT22;2272;49.226;8.108;2022-07-30T03:59:26;16.40;99.90
4520;DHT22;2272;49.226;8.108;2022-07-30T04:01:53;16.50;99.90
4520;DHT22;2272;49.226;8.108;2022-07-30T04:04:20;16.50;99.90
4520;DHT22;2272;49.226;8.108;2022-07-30T04:06:47;16.50;99.90
4520;DHT22;2272;49.226;8.108;2022-07-30T04:09:14;16.50;99.90
4520;DHT22;2272;49.226;8.108;2022-07-30T04:11:40;16.50;99.90
4520;DHT22;2272;49.226;8.108;2022-07-30T04:14:09;16.60;99.90
4520;DHT22;2272;49.226;8.108;2022-07-30T04:16:41;16.60;99.90
4520;DHT22;2272;49.226;8.108;2022-07-30T04:19:13;16.70;99.90
4520;DHT22;2272;49.226;8.108;2022-07-30T04:21:41;16.70;99.90
4520;DHT22;2272;49.226;8.108;2022-07-30T04:24:08;16.80;99.90
4520;DHT22;2272;49.226;8.108;2022-07-30T04:26:36;16.80;99.90
4520;DHT22;2272;49.226;8.108;2022-07-30T04:29:05;16.90;99.90
4520;DHT22;2272;49.226;8.108;2022-07-30T04:31:34;16.90;99.90
4520;DHT22;2272;49.226;8.108;2022-07-30T04:34:01;16.90;99.90
4520;DHT22;2272;49.226;8.108;2022-07-30T04:36:29;16.90;99.90
4520;DHT22;2272;49.226;8.108;2022-07-30T04:38:56;16.90;99.90
4520;DHT22;2272;49.226;8.108;2022-07-30T04:41:22;17.00;99.90
4520;DHT22;2272;49.226;8.108;2022-07-30T04:43:49;17.00;99.90
4520;DHT22;2272;49.226;8.108;2022-07-30T04:46:16;17.00;99.90
4520;DHT22;2272;49.226;8.108;2022-07-30T04:48:45;17.10;99.90
4520;DHT22;2272;49.226;8.108;2022-07-30T04:51:14;17.10;99.90
4520;DHT22;2272;49.226;8.108;2022-07-30T04:53:42;17.10;99.90
4520;DHT22;2272;49.226;8.108;2022-07-30T04:56:10;17.20;99.90
4520;DHT22;2272;49.226;8.108;2022-07-30T04:58:37;17.20;99.90
4520;DHT22;2272;49.226;8.108;2022-07-30T05:01:06;17.30;99.90
4520;DHT22;2272;49.226;8.108;2022-07-30T05:03:34;17.30;99.90
4520;DHT22;2272;49.226;8.108;2022-07-30T05:06:04;17.50;99.90
4520;DHT22;2272;49.226;8.108;2022-07-30T05:08:32;17.50;99.90
4520;DHT22;2272;49.226;8.108;2022-07-30T05:10:59;17.60;99.90
4520;DHT22;2272;49.226;8.108;2022-07-30T05:13:26;17.70;99.90
4520;DHT22;2272;49.226;8.108;2022-07-30T05:15:52;17.80;99.90
4520;DHT22;2272;49.226;8.108;2022-07-30T05:18:19;18.00;99.90
4520;DHT22;2272;49.226;8.108;2022-07-30T05:20:46;18.10;99.90
4520;DHT22;2272;49.226;8.108;2022-07-30T05:23:14;18.30;99.90
4520;DHT22;2272;49.226;8.108;2022-07-30T05:25:41;18.50;99.90
4520;DHT22;2272;49.226;8.108;2022-07-30T05:28:08;18.60;99.90
4520;DHT22;2272;49.226;8.108;2022-07-30T05:30:35;18.70;99.90
4520;DHT22;2272;49.226;8.108;2022-07-30T05:33:02;18.80;99.90
4520;DHT22;2272;49.226;8.108;2022-07-30T05:35:29;18.90;99.90
4520;DHT22;2272;49.226;8.108;2022-07-30T05:37:55;19.00;99.90
4520;DHT22;2272;49.226;8.108;2022-07-30T05:40:24;19.10;99.90
4520;DHT22;2272;49.226;8.108;2022-07-30T05:42:50;19.20;99.90
4520;DHT22;2272;49.226;8.108;2022-07-30T05:45:17;19.30;99.90
4520;DHT22;2272;49.226;8.108;2022-07-30T05:47:44;19.40;99.90
4520;DHT22;2272;49.226;8.108;2022-07-30T05:50:11;19.50;99.90
4520;DHT22;2272;49.226;8.108;2022-07-30T05:52:38;19.60;99.90
4520;DHT22;2272;49.226;8.108;2022-07-30T05:55:05;20.00;99.90
4520;DHT22;2272;49.226;8.108;2022-07-30T05:57:35;20.50;99.10
4520;DHT22;2272;49.226;8.108;2022-07-30T06:00:02;20.90;98.50
4520;DHT22;2272;49.226;8.108;2022-07-30T06:02:30;21.10;98.00
4520;DHT22;2272;49.226;8.108;2022-07-30T06:04:57;21.30;97.70
4520;DHT22;2272;49.226;8.108;2022-07-30T06:07:23;21.50;97.30
4520;DHT22;2272;49.226;8.108;2022-07-30T06:09:50;21.60;97.30
4520;DHT22;2272;49.226;8.108;2022-07-30T06:12:17;21.80;96.90
4520;DHT22;2272;49.226;8.108;2022-07-30T06:14:45;22.00;96.70
4520;DHT22;2272;49.226;8.108;2022-07-30T06:17:12;22.10;96.00
4520;DHT22;2272;49.226;8.108;2022-07-30T06:19:38;22.00;96.10
4520;DHT22;2272;49.226;8.108;2022-07-30T06:22:05;21.90;95.70
4520;DHT22;2272;49.226;8.108;2022-07-30T06:24:32;21.80;95.90
4520;DHT22;2272;49.226;8.108;2022-07-30T06:26:59;21.70;95.80
4520;DHT22;2272;49.226;8.108;2022-07-30T06:29:25;21.60;95.90
4520;DHT22;2272;49.226;8.108;2022-07-30T06:31:54;21.50;96.20
4520;DHT22;2272;49.226;8.108;2022-07-30T06:34:20;21.40;96.30
4520;DHT22;2272;49.226;8.108;2022-07-30T06:36:47;21.30;96.40
4520;DHT22;2272;49.226;8.108;2022-07-30T06:39:14;21.20;96.70
4520;DHT22;2272;49.226;8.108;2022-07-30T06:41:41;21.20;96.80
4520;DHT22;2272;49.226;8.108;2022-07-30T06:44:08;21.20;97.00
4520;DHT22;2272;49.226;8.108;2022-07-30T06:46:35;21.20;97.10
4520;DHT22;2272;49.226;8.108;2022-07-30T06:49:03;21.30;97.00
4520;DHT22;2272;49.226;8.108;2022-07-30T06:51:30;21.40;96.90
4520;DHT22;2272;49.226;8.108;2022-07-30T06:53:56;21.40;96.90
4520;DHT22;2272;49.226;8.108;2022-07-30T06:56:23;21.50;96.80
4520;DHT22;2272;49.226;8.108;2022-07-30T06:58:50;21.60;96.80
4520;DHT22;2272;49.226;8.108;2022-07-30T07:01:16;21.80;96.50
4520;DHT22;2272;49.226;8.108;2022-07-30T07:03:45;21.90;96.40
4520;DHT22;2272;49.226;8.108;2022-07-30T07:06:13;21.90;96.30
4520;DHT22;2272;49.226;8.108;2022-07-30T07:08:40;21.90;96.20
4520;DHT22;2272;49.226;8.108;2022-07-30T07:11:06;22.10;96.20
4520;DHT22;2272;49.226;8.108;2022-07-30T07:13:33;22.20;96.00
4520;DHT22;2272;49.226;8.108;2022-07-30T07:16:00;22.30;95.70
4520;DHT22;2272;49.226;8.108;2022-07-30T07:18:26;22.50;95.70
4520;DHT22;2272;49.226;8.108;2022-07-30T07:20:53;22.60;95.50
4520;DHT22;2272;49.226;8.108;2022-07-30T07:23:22;22.80;94.90
4520;DHT22;2272;49.226;8.108;2022-07-30T07:25:49;22.90;94.40
4520;DHT22;2272;49.226;8.108;2022-07-30T07:28:16;23.10;94.00
4520;DHT22;2272;49.226;8.108;2022-07-30T07:30:43;23.20;93.50
4520;DHT22;2272;49.226;8.108;2022-07-30T07:33:10;23.20;92.90
4520;DHT22;2272;49.226;8.108;2022-07-30T07:35:37;23.30;92.90
4520;DHT22;2272;49.226;8.108;2022-07-30T07:38:04;23.40;92.70
4520;DHT22;2272;49.226;8.108;2022-07-30T07:40:32;23.50;92.70
4520;DHT22;2272;49.226;8.108;2022-07-30T07:42:59;23.60;92.50
4520;DHT22;2272;49.226;8.108;2022-07-30T07:45:25;23.70;91.80
4520;DHT22;2272;49.226;8.108;2022-07-30T07:47:52;23.70;91.80
4520;DHT22;2272;49.226;8.108;2022-07-30T07:50:19;23.70;91.80
4520;DHT22;2272;49.226;8.108;2022-07-30T07:52:46;23.80;91.40
4520;DHT22;2272;49.226;8.108;2022-07-30T07:55:13;23.90;91.30
4520;DHT22;2272;49.226;8.108;2022-07-30T07:57:41;24.10;91.10
4520;DHT22;2272;49.226;8.108;2022-07-30T08:00:11;24.30;91.00
4520;DHT22;2272;49.226;8.108;2022-07-30T08:02:39;24.40;90.80
4520;DHT22;2272;49.226;8.108;2022-07-30T08:05:07;24.60;90.20
4520;DHT22;2272;49.226;8.108;2022-07-30T08:07:35;24.80;90.30
4520;DHT22;2272;49.226;8.108;2022-07-30T08:10:01;25.00;89.30
4520;DHT22;2272;49.226;8.108;2022-07-30T08:12:28;25.10;86.50
4520;DHT22;2272;49.226;8.108;2022-07-30T08:14:57;25.20;85.60
4520;DHT22;2272;49.226;8.108;2022-07-30T08:17:23;25.20;84.80
4520;DHT22;2272;49.226;8.108;2022-07-30T08:19:51;25.20;84.80
4520;DHT22;2272;49.226;8.108;2022-07-30T08:22:18;25.30;84.00
4520;DHT22;2272;49.226;8.108;2022-07-30T08:24:44;25.50;83.90
4520;DHT22;2272;49.226;8.108;2022-07-30T08:27:11;25.60;83.00
4520;DHT22;2272;49.226;8.108;2022-07-30T08:29:38;25.90;82.60
4520;DHT22;2272;49.226;8.108;2022-07-30T08:32:06;26.00;81.80
4520;DHT22;2272;49.226;8.108;2022-07-30T08:34:33;26.10;79.50
4520;DHT22;2272;49.226;8.108;2022-07-30T08:36:59;26.30;79.40
4520;DHT22;2272;49.226;8.108;2022-07-30T08:39:26;26.50;79.70
4520;DHT22;2272;49.226;8.108;2022-07-30T08:41:53;26.90;79.30
4520;DHT22;2272;49.226;8.108;2022-07-30T08:44:20;27.10;77.60
4520;DHT22;2272;49.226;8.108;2022-07-30T08:46:47;27.30;76.30
4520;DHT22;2272;49.226;8.108;2022-07-30T08:49:17;27.50;76.90
4520;DHT22;2272;49.226;8.108;2022-07-30T08:51:44;27.60;75.90
4520;DHT22;2272;49.226;8.108;2022-07-30T08:54:11;27.70;75.50
4520;DHT22;2272;49.226;8.108;2022-07-30T08:56:38;27.80;74.00
4520;DHT22;2272;49.226;8.108;2022-07-30T08:59:07;28.10;72.60
4520;DHT22;2272;49.226;8.108;2022-07-30T09:01:34;28.30;72.30
4520;DHT22;2272;49.226;8.108;2022-07-30T09:04:01;28.60;71.60
4520;DHT22;2272;49.226;8.108;2022-07-30T09:06:29;28.80;69.60
4520;DHT22;2272;49.226;8.108;2022-07-30T09:08:55;28.90;70.80
4520;DHT22;2272;49.226;8.108;2022-07-30T09:11:22;28.90;69.10
4520;DHT22;2272;49.226;8.108;2022-07-30T09:13:49;28.90;69.00
4520;DHT22;2272;49.226;8.108;2022-07-30T09:16:20;28.90;68.50
4520;DHT22;2272;49.226;8.108;2022-07-30T09:18:48;29.20;68.50
4520;DHT22;2272;49.226;8.108;2022-07-30T09:21:17;29.60;68.10
4520;DHT22;2272;49.226;8.108;2022-07-30T09:23:57;29.50;66.30
4520;DHT22;2272;49.226;8.108;2022-07-30T09:26:24;29.00;67.50
4520;DHT22;2272;49.226;8.108;2022-07-30T09:28:51;28.80;67.90
4520;DHT22;2272;49.226;8.108;2022-07-30T09:31:20;28.80;66.70
4520;DHT22;2272;49.226;8.108;2022-07-30T09:33:47;29.00;66.80
4520;DHT22;2272;49.226;8.108;2022-07-30T09:36:15;28.80;66.50
4520;DHT22;2272;49.226;8.108;2022-07-30T09:38:44;28.50;66.50
4520;DHT22;2272;49.226;8.108;2022-07-30T09:41:14;28.10;68.40
4520;DHT22;2272;49.226;8.108;2022-07-30T09:43:43;28.10;68.60
4520;DHT22;2272;49.226;8.108;2022-07-30T09:46:10;28.20;68.80
4520;DHT22;2272;49.226;8.108;2022-07-30T09:48:37;28.30;68.70
4520;DHT22;2272;49.226;8.108;2022-07-30T09:51:04;28.00;67.80
4520;DHT22;2272;49.226;8.108;2022-07-30T09:53:31;27.80;66.60
4520;DHT22;2272;49.226;8.108;2022-07-30T09:55:58;27.70;67.90
4520;DHT22;2272;49.226;8.108;2022-07-30T09:58:38;28.10;68.00
4520;DHT22;2272;49.226;8.108;2022-07-30T10:01:05;28.60;66.40
4520;DHT22;2272;49.226;8.108;2022-07-30T10:03:40;28.70;66.00
4520;DHT22;2272;49.226;8.108;2022-07-30T10:06:07;29.20;65.20
4520;DHT22;2272;49.226;8.108;2022-07-30T10:08:40;29.50;62.60
4520;DHT22;2272;49.226;8.108;2022-07-30T10:11:10;29.70;61.50
4520;DHT22;2272;49.226;8.108;2022-07-30T10:13:40;30.20;60.90
4520;DHT22;2272;49.226;8.108;2022-07-30T10:16:07;30.60;60.00
4520;DHT22;2272;49.226;8.108;2022-07-30T10:18:35;30.90;59.90
4520;DHT22;2272;49.226;8.108;2022-07-30T10:21:03;31.00;58.90
4520;DHT22;2272;49.226;8.108;2022-07-30T10:23:31;30.60;59.00
4520;DHT22;2272;49.226;8.108;2022-07-30T10:25:58;29.70;60.60
4520;DHT22;2272;49.226;8.108;2022-07-30T10:28:26;28.90;62.00
4520;DHT22;2272;49.226;8.108;2022-07-30T10:30:56;28.60;63.30
4520;DHT22;2272;49.226;8.108;2022-07-30T10:33:30;28.80;62.50
4520;DHT22;2272;49.226;8.108;2022-07-30T10:35:56;29.10;60.80
4520;DHT22;2272;49.226;8.108;2022-07-30T10:38:28;29.10;60.80
4520;DHT22;2272;49.226;8.108;2022-07-30T10:41:00;29.10;62.10
4520;DHT22;2272;49.226;8.108;2022-07-30T10:43:54;29.20;61.00
4520;DHT22;2272;49.226;8.108;2022-07-30T10:46:36;29.40;60.90
4520;DHT22;2272;49.226;8.108;2022-07-30T10:49:09;29.70;59.90
4520;DHT22;2272;49.226;8.108;2022-07-30T10:51:43;29.60;61.20
4520;DHT22;2272;49.226;8.108;2022-07-30T10:54:38;29.50;59.90
4520;DHT22;2272;49.226;8.108;2022-07-30T10:57:08;29.30;61.30
4520;DHT22;2272;49.226;8.108;2022-07-30T11:00:07;29.20;62.10
4520;DHT22;2272;49.226;8.108;2022-07-30T11:02:35;29.00;62.10
4520;DHT22;2272;49.226;8.108;2022-07-30T11:05:22;29.20;63.00
4520;DHT22;2272;49.226;8.108;2022-07-30T11:07:50;29.60;61.30
4520;DHT22;2272;49.226;8.108;2022-07-30T11:10:35;29.80;60.20
4520;DHT22;2272;49.226;8.108;2022-07-30T11:13:02;29.90;59.40
4520;DHT22;2272;49.226;8.108;2022-07-30T11:15:50;30.20;58.80
4520;DHT22;2272;49.226;8.108;2022-07-30T11:18:20;30.40;58.70
4520;DHT22;2272;49.226;8.108;2022-07-30T11:21:14;30.60;59.00
4520;DHT22;2272;49.226;8.108;2022-07-30T11:23:42;30.80;58.80
4520;DHT22;2272;49.226;8.108;2022-07-30T11:26:10;31.20;57.10
4520;DHT22;2272;49.226;8.108;2022-07-30T11:28:40;31.40;56.50
4520;DHT22;2272;49.226;8.108;2022-07-30T11:31:28;31.30;54.70
4520;DHT22;2272;49.226;8.108;2022-07-30T11:37:05;30.90;56.20
4520;DHT22;2272;49.226;8.108;2022-07-30T11:40:06;31.00;56.80
4520;DHT22;2272;49.226;8.108;2022-07-30T11:42:35;31.00;56.60
4520;DHT22;2272;49.226;8.108;2022-07-30T11:45:22;30.80;56.80
4520;DHT22;2272;49.226;8.108;2022-07-30T11:47:53;30.40;57.10
4520;DHT22;2272;49.226;8.108;2022-07-30T11:50:22;30.20;57.70
4520;DHT22;2272;49.226;8.108;2022-07-30T11:52:51;30.50;57.60
4520;DHT22;2272;49.226;8.108;2022-07-30T11:55:22;30.70;56.10
4520;DHT22;2272;49.226;8.108;2022-07-30T11:57:50;31.00;54.80
4520;DHT22;2272;49.226;8.108;2022-07-30T12:00:18;31.20;55.10
4520;DHT22;2272;49.226;8.108;2022-07-30T12:02:45;30.90;55.30
4520;DHT22;2272;49.226;8.108;2022-07-30T12:05:13;30.90;56.40
4520;DHT22;2272;49.226;8.108;2022-07-30T12:07:39;30.80;55.90
4520;DHT22;2272;49.226;8.108;2022-07-30T12:10:18;30.80;55.90
4520;DHT22;2272;49.226;8.108;2022-07-30T12:12:46;31.00;55.40
4520;DHT22;2272;49.226;8.108;2022-07-30T12:15:28;31.40;54.80
4520;DHT22;2272;49.226;8.108;2022-07-30T12:17:55;31.90;54.20
4520;DHT22;2272;49.226;8.108;2022-07-30T12:20:21;32.50;54.10
4520;DHT22;2272;49.226;8.108;2022-07-30T12:22:48;32.90;54.30
4520;DHT22;2272;49.226;8.108;2022-07-30T12:25:17;32.90;53.50
4520;DHT22;2272;49.226;8.108;2022-07-30T12:27:45;32.90;53.00
4520;DHT22;2272;49.226;8.108;2022-07-30T12:30:14;32.70;52.90
4520;DHT22;2272;49.226;8.108;2022-07-30T12:32:41;32.60;53.20
4520;DHT22;2272;49.226;8.108;2022-07-30T12:35:08;32.30;53.10
4520;DHT22;2272;49.226;8.108;2022-07-30T12:37:35;31.80;54.40
4520;DHT22;2272;49.226;8.108;2022-07-30T12:40:07;31.80;55.90
4520;DHT22;2272;49.226;8.108;2022-07-30T12:42:36;31.80;54.00
4520;DHT22;2272;49.226;8.108;2022-07-30T12:45:04;31.50;54.20
4520;DHT22;2272;49.226;8.108;2022-07-30T12:47:31;31.50;54.30
4520;DHT22;2272;49.226;8.108;2022-07-30T12:50:00;31.60;54.60
4520;DHT22;2272;49.226;8.108;2022-07-30T12:52:29;31.90;54.50
4520;DHT22;2272;49.226;8.108;2022-07-30T12:55:01;32.10;53.80
4520;DHT22;2272;49.226;8.108;2022-07-30T12:57:28;32.10;53.10
4520;DHT22;2272;49.226;8.108;2022-07-30T13:00:16;31.80;52.90
4520;DHT22;2272;49.226;8.108;2022-07-30T13:02:43;31.20;54.40
4520;DHT22;2272;49.226;8.108;2022-07-30T13:05:10;30.80;55.40
4520;DHT22;2272;49.226;8.108;2022-07-30T13:07:52;30.60;55.80
4520;DHT22;2272;49.226;8.108;2022-07-30T13:10:18;30.30;55.40
4520;DHT22;2272;49.226;8.108;2022-07-30T13:12:45;30.40;55.30
4520;DHT22;2272;49.226;8.108;2022-07-30T13:15:17;30.40;54.80
4520;DHT22;2272;49.226;8.108;2022-07-30T13:17:44;30.50;54.80
4520;DHT22;2272;49.226;8.108;2022-07-30T13:20:12;31.00;54.20
4520;DHT22;2272;49.226;8.108;2022-07-30T13:22:39;31.80;54.20
4520;DHT22;2272;49.226;8.108;2022-07-30T13:25:07;32.50;53.30
4520;DHT22;2272;49.226;8.108;2022-07-30T13:27:34;32.70;52.70
4520;DHT22;2272;49.226;8.108;2022-07-30T13:30:01;32.70;53.50
4520;DHT22;2272;49.226;8.108;2022-07-30T13:32:29;32.50;52.30
4520;DHT22;2272;49.226;8.108;2022-07-30T13:34:56;32.70;53.00
4520;DHT22;2272;49.226;8.108;2022-07-30T13:37:23;33.00;51.70
4520;DHT22;2272;49.226;8.108;2022-07-30T13:39:52;32.90;52.00
4520;DHT22;2272;49.226;8.108;2022-07-30T13:42:22;32.70;51.80
4520;DHT22;2272;49.226;8.108;2022-07-30T13:44:48;32.70;52.30
4520;DHT22;2272;49.226;8.108;2022-07-30T13:47:15;32.80;51.70
4520;DHT22;2272;49.226;8.108;2022-07-30T13:49:43;32.60;51.20
4520;DHT22;2272;49.226;8.108;2022-07-30T13:52:13;32.10;51.40
4520;DHT22;2272;49.226;8.108;2022-07-30T13:54:40;31.70;51.70
4520;DHT22;2272;49.226;8.108;2022-07-30T13:57:07;31.50;52.10
4520;DHT22;2272;49.226;8.108;2022-07-30T13:59:34;31.20;52.70
4520;DHT22;2272;49.226;8.108;2022-07-30T14:02:01;31.20;53.40
4520;DHT22;2272;49.226;8.108;2022-07-30T14:04:28;31.00;52.80
4520;DHT22;2272;49.226;8.108;2022-07-30T14:06:57;31.00;53.70
4520;DHT22;2272;49.226;8.108;2022-07-30T14:09:24;30.90;53.70
4520;DHT22;2272;49.226;8.108;2022-07-30T14:11:51;31.00;53.60
4520;DHT22;2272;49.226;8.108;2022-07-30T14:14:18;31.10;53.50
4520;DHT22;2272;49.226;8.108;2022-07-30T14:16:47;31.10;53.50
4520;DHT22;2272;49.226;8.108;2022-07-30T14:19:15;31.20;52.20
4520;DHT22;2272;49.226;8.108;2022-07-30T14:21:42;31.10;51.50
4520;DHT22;2272;49.226;8.108;2022-07-30T14:24:10;31.00;52.40
4520;DHT22;2272;49.226;8.108;2022-07-30T14:26:38;30.70;52.30
4520;DHT22;2272;49.226;8.108;2022-07-30T14:29:05;30.60;53.10
4520;DHT22;2272;49.226;8.108;2022-07-30T14:31:32;30.40;53.20
4520;DHT22;2272;49.226;8.108;2022-07-30T14:33:59;30.50;53.10
4520;DHT22;2272;49.226;8.108;2022-07-30T14:36:25;30.80;52.40
4520;DHT22;2272;49.226;8.108;2022-07-30T14:38:54;31.40;52.40
4520;DHT22;2272;49.226;8.108;2022-07-30T14:41:23;31.80;51.70
4520;DHT22;2272;49.226;8.108;2022-07-30T14:43:50;32.10;50.00
4520;DHT22;2272;49.226;8.108;2022-07-30T14:46:17;32.30;49.70
4520;DHT22;2272;49.226;8.108;2022-07-30T14:48:44;32.10;50.00
4520;DHT22;2272;49.226;8.108;2022-07-30T14:51:10;31.90;49.30
4520;DHT22;2272;49.226;8.108;2022-07-30T14:53:37;32.00;49.80
4520;DHT22;2272;49.226;8.108;2022-07-30T14:56:04;32.10;50.20
4520;DHT22;2272;49.226;8.108;2022-07-30T14:58:32;32.50;49.60
4520;DHT22;2272;49.226;8.108;2022-07-30T15:00:59;32.60;48.60
4520;DHT22;2272;49.226;8.108;2022-07-30T15:03:25;32.70;48.80
4520;DHT22;2272;49.226;8.108;2022-07-30T15:05:52;32.40;48.60
4520;DHT22;2272;49.226;8.108;2022-07-30T15:08:19;32.00;49.40
4520;DHT22;2272;49.226;8.108;2022-07-30T15:10:46;31.90;50.30
4520;DHT22;2272;49.226;8.108;2022-07-30T15:13:13;32.00;49.50
4520;DHT22;2272;49.226;8.108;2022-07-30T15:15:41;32.30;50.20
4520;DHT22;2272;49.226;8.108;2022-07-30T15:18:08;32.30;49.40
4520;DHT22;2272;49.226;8.108;2022-07-30T15:20:35;32.10;48.90
4520;DHT22;2272;49.226;8.108;2022-07-30T15:23:02;31.80;49.60
4520;DHT22;2272;49.226;8.108;2022-07-30T15:25:30;31.70;49.60
4520;DHT22;2272;49.226;8.108;2022-07-30T15:27:56;31.50;48.70
4520;DHT22;2272;49.226;8.108;2022-07-30T15:30:23;31.40;48.30
4520;DHT22;2272;49.226;8.108;2022-07-30T15:32:51;31.00;49.30
4520;DHT22;2272;49.226;8.108;2022-07-30T15:35:18;30.70;50.10
4520;DHT22;2272;49.226;8.108;2022-07-30T15:37:45;30.60;50.30
4520;DHT22;2272;49.226;8.108;2022-07-30T15:40:12;30.60;50.60
4520;DHT22;2272;49.226;8.108;2022-07-30T15:42:39;30.60;50.40
4520;DHT22;2272;49.226;8.108;2022-07-30T15:45:07;30.60;50.00
4520;DHT22;2272;49.226;8.108;2022-07-30T15:47:34;30.70;49.60
4520;DHT22;2272;49.226;8.108;2022-07-30T15:50:03;30.80;49.70
4520;DHT22;2272;49.226;8.108;2022-07-30T15:52:30;30.90;50.10
4520;DHT22;2272;49.226;8.108;2022-07-30T15:54:56;31.10;49.70
4520;DHT22;2272;49.226;8.108;2022-07-30T15:57:23;31.20;49.20
4520;DHT22;2272;49.226;8.108;2022-07-30T15:59:50;30.90;49.30
4520;DHT22;2272;49.226;8.108;2022-07-30T16:02:16;30.50;49.20
4520;DHT22;2272;49.226;8.108;2022-07-30T16:04:43;30.20;50.20
4520;DHT22;2272;49.226;8.108;2022-07-30T16:07:11;30.20;49.30
4520;DHT22;2272;49.226;8.108;2022-07-30T16:09:38;30.40;49.10
4520;DHT22;2272;49.226;8.108;2022-07-30T16:12:05;30.70;48.90
4520;DHT22;2272;49.226;8.108;2022-07-30T16:14:33;30.90;49.00